NDF3430 LOWI-EDDH
Flight info
| Callsign | NDF3430 |
|---|---|
| Flight time | 1h 15m |
| Altitude | 38000 |
| Route | KOGOL3J KOGOL M726 KEMES DCT ABGUS DCT DIRBO/N0376F230 T902 RARUP RARUP6A |
| Aircraft | B738/M-SDE2E3FGHIRWXY/LB1 |
Departure
| Time | 2026-04-20 18:02 |
|---|---|
| Airport | Innsbruck Airport (LOWI) |
Arrival
| Time | 2026-04-20 19:18 |
|---|---|
| Airport | Hamburg Helmut Schmidt Airport (EDDH) |
| Time | Latitude | Longitude | Altitude | Speed | Heading |
|---|---|---|---|---|---|
| 2026-04-20 17:43 | 47.25824 | 11.35050 | 1903 ft | 0 kts | 171° |
| 2026-04-20 17:50 | 47.25833 | 11.35048 | 1903 ft | 4 kts | 173° |
| 2026-04-20 17:51 | 47.25858 | 11.35046 | 1892 ft | 4 kts | 189° |
| 2026-04-20 17:51 | 47.25878 | 11.35058 | 1895 ft | 4 kts | 246° |
| 2026-04-20 17:51 | 47.25881 | 11.35067 | 1898 ft | 0 kts | 261° |
| 2026-04-20 17:55 | 47.25880 | 11.35064 | 1903 ft | 1 kts | 261° |
| 2026-04-20 17:56 | 47.25874 | 11.35009 | 1900 ft | 10 kts | 260° |
| 2026-04-20 17:56 | 47.25857 | 11.34857 | 1903 ft | 19 kts | 261° |
| 2026-04-20 17:56 | 47.25838 | 11.34686 | 1901 ft | 18 kts | 261° |
| 2026-04-20 17:56 | 47.25818 | 11.34496 | 1896 ft | 20 kts | 261° |
| 2026-04-20 17:57 | 47.25795 | 11.34280 | 1898 ft | 22 kts | 260° |
| 2026-04-20 17:57 | 47.25771 | 11.34067 | 1903 ft | 17 kts | 264° |
| 2026-04-20 17:57 | 47.25794 | 11.33914 | 1891 ft | 15 kts | 298° |
| 2026-04-20 17:57 | 47.25854 | 11.33789 | 1899 ft | 12 kts | 306° |
| 2026-04-20 17:58 | 47.25866 | 11.33766 | 1898 ft | 0 kts | 306° |
| 2026-04-20 18:00 | 47.25871 | 11.33756 | 1893 ft | 4 kts | 306° |
| 2026-04-20 18:00 | 47.25905 | 11.33688 | 1900 ft | 13 kts | 306° |
| 2026-04-20 18:00 | 47.25927 | 11.33535 | 1896 ft | 19 kts | 256° |
| 2026-04-20 18:00 | 47.25900 | 11.33305 | 1903 ft | 25 kts | 262° |
| 2026-04-20 18:01 | 47.25843 | 11.33174 | 1898 ft | 10 kts | 255° |
| 2026-04-20 18:01 | 47.25856 | 11.33089 | 1895 ft | 10 kts | 340° |
| 2026-04-20 18:01 | 47.25886 | 11.33124 | 1901 ft | 0 kts | 75° |
| 2026-04-20 18:02 | 47.25887 | 11.33131 | 1903 ft | 12 kts | 77° |
| 2026-04-20 18:02 | 47.25954 | 11.33767 | 1899 ft | 110 kts | 81° |
| 2026-04-20 18:02 | 47.26111 | 11.35201 | 2281 ft | 153 kts | 81° |
| 2026-04-20 18:02 | 47.26289 | 11.36828 | 3193 ft | 173 kts | 80° |
| 2026-04-20 18:03 | 47.26484 | 11.38651 | 4162 ft | 183 kts | 81° |
| 2026-04-20 18:03 | 47.26682 | 11.40450 | 5404 ft | 176 kts | 80° |
| 2026-04-20 18:03 | 47.26882 | 11.42362 | 5939 ft | 204 kts | 80° |
| 2026-04-20 18:03 | 47.27118 | 11.44566 | 6181 ft | 236 kts | 77° |
| 2026-04-20 18:04 | 47.27644 | 11.47028 | 6526 ft | 264 kts | 67° |
| 2026-04-20 18:04 | 47.28396 | 11.49575 | 7258 ft | 276 kts | 65° |
| 2026-04-20 18:04 | 47.29176 | 11.52179 | 8054 ft | 285 kts | 65° |
| 2026-04-20 18:04 | 47.29966 | 11.54889 | 8990 ft | 290 kts | 65° |
| 2026-04-20 18:05 | 47.31545 | 11.60424 | 9497 ft | 299 kts | 65° |
| 2026-04-20 18:05 | 47.32357 | 11.63254 | 9507 ft | 299 kts | 65° |
| 2026-04-20 18:05 | 47.33165 | 11.66055 | 9508 ft | 294 kts | 65° |
| 2026-04-20 18:06 | 47.34049 | 11.68712 | 9549 ft | 292 kts | 49° |
| 2026-04-20 18:06 | 47.35673 | 11.70412 | 10137 ft | 289 kts | 14° |
| 2026-04-20 18:06 | 47.37698 | 11.70816 | 10537 ft | 305 kts | 352° |
| 2026-04-20 18:06 | 47.39133 | 11.70399 | 10718 ft | 318 kts | 338° |
| 2026-04-20 18:07 | 47.41098 | 11.68956 | 11408 ft | 320 kts | 321° |
| 2026-04-20 18:07 | 47.42805 | 11.66845 | 12282 ft | 322 kts | 314° |
| 2026-04-20 18:07 | 47.44413 | 11.64567 | 13357 ft | 317 kts | 313° |
| 2026-04-20 18:07 | 47.45987 | 11.62299 | 14376 ft | 318 kts | 313° |
| 2026-04-20 18:08 | 47.47605 | 11.60004 | 14974 ft | 328 kts | 314° |
| 2026-04-20 18:08 | 47.49286 | 11.57658 | 14994 ft | 331 kts | 314° |
| 2026-04-20 18:08 | 47.50959 | 11.55356 | 15039 ft | 326 kts | 314° |
| 2026-04-20 18:08 | 47.52615 | 11.53087 | 15090 ft | 324 kts | 315° |
| 2026-04-20 18:09 | 47.54279 | 11.50814 | 15138 ft | 326 kts | 314° |
| 2026-04-20 18:09 | 47.55964 | 11.48517 | 15412 ft | 333 kts | 314° |
| 2026-04-20 18:09 | 47.57659 | 11.46207 | 16215 ft | 327 kts | 314° |
| 2026-04-20 18:09 | 47.59331 | 11.43928 | 16870 ft | 330 kts | 314° |
| 2026-04-20 18:10 | 47.61148 | 11.41813 | 17331 ft | 335 kts | 326° |
| 2026-04-20 18:10 | 47.63271 | 11.40334 | 17835 ft | 340 kts | 334° |
| 2026-04-20 18:10 | 47.65586 | 11.39444 | 18342 ft | 349 kts | 346° |
| 2026-04-20 18:10 | 47.67987 | 11.39077 | 18771 ft | 353 kts | 349° |
| 2026-04-20 18:11 | 47.70447 | 11.38778 | 19094 ft | 357 kts | 349° |
| 2026-04-20 18:11 | 47.72934 | 11.38482 | 19412 ft | 361 kts | 349° |
| 2026-04-20 18:11 | 47.75445 | 11.38170 | 19737 ft | 363 kts | 348° |
| 2026-04-20 18:11 | 47.77964 | 11.37842 | 20015 ft | 363 kts | 348° |
| 2026-04-20 18:12 | 47.80480 | 11.37504 | 20012 ft | 362 kts | 348° |
| 2026-04-20 18:12 | 47.82990 | 11.37161 | 20035 ft | 361 kts | 348° |
| 2026-04-20 18:12 | 47.85496 | 11.36817 | 20040 ft | 361 kts | 348° |
| 2026-04-20 18:12 | 47.87979 | 11.36539 | 20171 ft | 352 kts | 350° |
| 2026-04-20 18:13 | 47.90378 | 11.36351 | 20303 ft | 339 kts | 350° |
| 2026-04-20 18:13 | 47.92724 | 11.36176 | 20570 ft | 337 kts | 349° |
| 2026-04-20 18:13 | 47.95079 | 11.35988 | 20836 ft | 340 kts | 349° |
| 2026-04-20 18:13 | 47.97444 | 11.35793 | 21108 ft | 341 kts | 349° |
| 2026-04-20 18:14 | 47.99804 | 11.35596 | 21502 ft | 338 kts | 348° |
| 2026-04-20 18:14 | 48.02151 | 11.35398 | 21896 ft | 337 kts | 348° |
| 2026-04-20 18:14 | 48.04493 | 11.35198 | 22308 ft | 340 kts | 348° |
| 2026-04-20 18:14 | 48.06879 | 11.34981 | 22731 ft | 345 kts | 346° |
| 2026-04-20 18:15 | 48.09264 | 11.34606 | 23112 ft | 344 kts | 345° |
| 2026-04-20 18:15 | 48.11619 | 11.34137 | 23070 ft | 344 kts | 344° |
| 2026-04-20 18:15 | 48.13983 | 11.33648 | 23078 ft | 343 kts | 344° |
| 2026-04-20 18:15 | 48.16377 | 11.33157 | 23079 ft | 343 kts | 344° |
| 2026-04-20 18:16 | 48.18743 | 11.32681 | 23078 ft | 343 kts | 344° |
| 2026-04-20 18:16 | 48.21101 | 11.32218 | 23341 ft | 341 kts | 344° |
| 2026-04-20 18:16 | 48.23465 | 11.31754 | 23675 ft | 344 kts | 344° |
| 2026-04-20 18:16 | 48.25851 | 11.31286 | 23952 ft | 347 kts | 344° |
| 2026-04-20 18:17 | 48.28226 | 11.30857 | 24237 ft | 349 kts | 345° |
| 2026-04-20 18:17 | 48.30655 | 11.30473 | 24521 ft | 351 kts | 345° |
| 2026-04-20 18:17 | 48.33102 | 11.30100 | 24862 ft | 355 kts | 345° |
| 2026-04-20 18:17 | 48.35568 | 11.29725 | 25422 ft | 356 kts | 345° |
| 2026-04-20 18:18 | 48.38044 | 11.29347 | 26021 ft | 357 kts | 345° |
| 2026-04-20 18:18 | 48.40518 | 11.28965 | 26607 ft | 357 kts | 345° |
| 2026-04-20 18:18 | 48.42942 | 11.28590 | 27318 ft | 354 kts | 344° |
| 2026-04-20 18:18 | 48.45381 | 11.28211 | 28042 ft | 350 kts | 344° |
| 2026-04-20 18:19 | 48.47813 | 11.27830 | 28678 ft | 350 kts | 344° |
| 2026-04-20 18:19 | 48.50228 | 11.27447 | 29286 ft | 349 kts | 344° |
| 2026-04-20 18:19 | 48.52636 | 11.27067 | 29954 ft | 347 kts | 343° |
| 2026-04-20 18:19 | 48.55069 | 11.26676 | 30177 ft | 357 kts | 343° |
| 2026-04-20 18:20 | 48.57581 | 11.26269 | 30251 ft | 369 kts | 344° |
| 2026-04-20 18:20 | 48.60172 | 11.25855 | 30329 ft | 379 kts | 344° |
| 2026-04-20 18:20 | 48.62817 | 11.25439 | 30607 ft | 383 kts | 344° |
| 2026-04-20 18:20 | 48.65484 | 11.25020 | 30906 ft | 387 kts | 345° |
| 2026-04-20 18:21 | 48.68138 | 11.24590 | 31203 ft | 390 kts | 345° |
| 2026-04-20 18:21 | 48.70843 | 11.24146 | 31501 ft | 389 kts | 345° |
| 2026-04-20 18:21 | 48.73501 | 11.23716 | 31780 ft | 379 kts | 345° |
| 2026-04-20 18:21 | 48.76097 | 11.23295 | 32128 ft | 370 kts | 345° |
| 2026-04-20 18:22 | 48.78640 | 11.22875 | 32528 ft | 366 kts | 345° |
| 2026-04-20 18:22 | 48.81175 | 11.22454 | 32907 ft | 366 kts | 345° |
| 2026-04-20 18:22 | 48.83705 | 11.22034 | 33304 ft | 366 kts | 345° |
| 2026-04-20 18:22 | 48.86265 | 11.21791 | 33704 ft | 371 kts | 350° |
| 2026-04-20 18:23 | 48.88855 | 11.21780 | 34078 ft | 373 kts | 352° |
| 2026-04-20 18:23 | 48.91461 | 11.21824 | 34068 ft | 382 kts | 352° |
| 2026-04-20 18:23 | 48.94128 | 11.21881 | 34199 ft | 381 kts | 352° |
| 2026-04-20 18:23 | 48.96758 | 11.21934 | 34461 ft | 375 kts | 352° |
| 2026-04-20 18:24 | 48.99358 | 11.21972 | 34740 ft | 373 kts | 353° |
| 2026-04-20 18:24 | 49.01964 | 11.21995 | 34996 ft | 374 kts | 353° |
| 2026-04-20 18:24 | 49.04567 | 11.22011 | 35255 ft | 375 kts | 353° |
| 2026-04-20 18:24 | 49.07178 | 11.22024 | 35524 ft | 376 kts | 353° |
| 2026-04-20 18:25 | 49.09773 | 11.22037 | 35790 ft | 377 kts | 353° |
| 2026-04-20 18:25 | 49.12395 | 11.22050 | 36052 ft | 378 kts | 354° |
| 2026-04-20 18:25 | 49.15034 | 11.22064 | 36324 ft | 379 kts | 354° |
| 2026-04-20 18:25 | 49.17673 | 11.22079 | 36594 ft | 379 kts | 354° |
| 2026-04-20 18:26 | 49.20313 | 11.22094 | 36895 ft | 380 kts | 355° |
| 2026-04-20 18:26 | 49.22952 | 11.22110 | 37168 ft | 380 kts | 355° |
| 2026-04-20 18:26 | 49.25599 | 11.22133 | 37455 ft | 380 kts | 355° |
| 2026-04-20 18:26 | 49.28240 | 11.22158 | 37738 ft | 379 kts | 355° |
| 2026-04-20 18:27 | 49.30886 | 11.22183 | 38021 ft | 379 kts | 356° |
| 2026-04-20 18:27 | 49.33532 | 11.22207 | 38093 ft | 383 kts | 356° |
| 2026-04-20 18:27 | 49.38944 | 11.22252 | 38109 ft | 394 kts | 356° |
| 2026-04-20 18:28 | 49.44477 | 11.22301 | 38114 ft | 405 kts | 356° |
| 2026-04-20 18:28 | 49.50180 | 11.22354 | 38115 ft | 415 kts | 356° |
| 2026-04-20 18:29 | 49.56010 | 11.22340 | 38105 ft | 419 kts | 354° |
| 2026-04-20 18:29 | 49.61853 | 11.21917 | 38102 ft | 421 kts | 353° |
| 2026-04-20 18:30 | 49.67708 | 11.21421 | 38111 ft | 422 kts | 354° |
| 2026-04-20 18:30 | 49.73527 | 11.20970 | 38109 ft | 422 kts | 354° |
| 2026-04-20 18:31 | 49.79396 | 11.20547 | 38112 ft | 421 kts | 354° |
| 2026-04-20 18:31 | 49.85238 | 11.20136 | 38112 ft | 419 kts | 354° |
| 2026-04-20 18:32 | 49.91054 | 11.19726 | 38115 ft | 418 kts | 354° |
| 2026-04-20 18:32 | 49.96855 | 11.19316 | 38116 ft | 416 kts | 354° |
| 2026-04-20 18:33 | 50.02636 | 11.18906 | 38111 ft | 415 kts | 354° |
| 2026-04-20 18:33 | 50.08400 | 11.18496 | 38119 ft | 414 kts | 354° |
| 2026-04-20 18:34 | 50.14137 | 11.18086 | 38125 ft | 415 kts | 355° |
| 2026-04-20 18:34 | 50.19917 | 11.17673 | 38120 ft | 416 kts | 355° |
| 2026-04-20 18:35 | 50.25703 | 11.17258 | 38123 ft | 417 kts | 355° |
| 2026-04-20 18:35 | 50.31508 | 11.16841 | 38122 ft | 418 kts | 355° |
| 2026-04-20 18:36 | 50.37338 | 11.16421 | 38128 ft | 419 kts | 355° |
| 2026-04-20 18:36 | 50.43147 | 11.16002 | 38121 ft | 421 kts | 355° |
| 2026-04-20 18:37 | 50.49010 | 11.15578 | 38129 ft | 421 kts | 355° |
| 2026-04-20 18:37 | 50.54885 | 11.15151 | 38143 ft | 425 kts | 355° |
| 2026-04-20 18:38 | 50.60867 | 11.14714 | 38144 ft | 434 kts | 355° |
| 2026-04-20 18:38 | 50.66927 | 11.14273 | 38142 ft | 436 kts | 355° |
| 2026-04-20 18:39 | 50.72997 | 11.13830 | 38129 ft | 437 kts | 355° |
| 2026-04-20 18:39 | 50.79040 | 11.13388 | 38126 ft | 437 kts | 355° |
| 2026-04-20 18:40 | 50.85108 | 11.12943 | 38131 ft | 436 kts | 355° |
| 2026-04-20 18:40 | 50.91156 | 11.12497 | 38131 ft | 434 kts | 355° |
| 2026-04-20 18:41 | 50.97191 | 11.12052 | 38128 ft | 433 kts | 355° |
| 2026-04-20 18:41 | 51.03200 | 11.11607 | 38128 ft | 431 kts | 355° |
| 2026-04-20 18:42 | 51.09195 | 11.11162 | 38134 ft | 430 kts | 356° |
| 2026-04-20 18:42 | 51.15123 | 11.10720 | 38131 ft | 429 kts | 356° |
| 2026-04-20 18:43 | 51.21077 | 11.10276 | 38131 ft | 428 kts | 356° |
| 2026-04-20 18:43 | 51.27022 | 11.09831 | 38141 ft | 427 kts | 356° |
| 2026-04-20 18:44 | 51.32967 | 11.09384 | 38141 ft | 427 kts | 355° |
| 2026-04-20 18:44 | 51.38909 | 11.08929 | 38144 ft | 428 kts | 356° |
| 2026-04-20 18:45 | 51.44889 | 11.08484 | 38138 ft | 437 kts | 356° |
| 2026-04-20 18:45 | 51.51014 | 11.08023 | 38145 ft | 442 kts | 356° |
| 2026-04-20 18:46 | 51.57175 | 11.07556 | 38149 ft | 444 kts | 356° |
| 2026-04-20 18:46 | 51.63356 | 11.07087 | 38144 ft | 445 kts | 356° |
| 2026-04-20 18:47 | 51.69531 | 11.06616 | 38153 ft | 443 kts | 356° |
| 2026-04-20 18:47 | 51.75690 | 11.06145 | 38155 ft | 441 kts | 356° |
| 2026-04-20 18:48 | 51.81814 | 11.05676 | 38157 ft | 439 kts | 356° |
| 2026-04-20 18:48 | 51.87872 | 11.05130 | 38157 ft | 437 kts | 354° |
| 2026-04-20 18:49 | 51.93882 | 11.03930 | 38163 ft | 434 kts | 351° |
| 2026-04-20 18:49 | 51.99859 | 11.02567 | 38161 ft | 433 kts | 351° |
| 2026-04-20 18:50 | 52.05830 | 11.01241 | 38161 ft | 431 kts | 352° |
| 2026-04-20 18:50 | 52.08756 | 11.00606 | 38142 ft | 416 kts | 352° |
| 2026-04-20 18:50 | 52.11620 | 10.99990 | 38170 ft | 416 kts | 352° |
| 2026-04-20 18:51 | 52.17423 | 10.98744 | 38179 ft | 426 kts | 352° |
| 2026-04-20 18:51 | 52.23374 | 10.97465 | 38179 ft | 436 kts | 352° |
| 2026-04-20 18:52 | 52.29410 | 10.96164 | 37815 ft | 449 kts | 352° |
| 2026-04-20 18:52 | 52.32508 | 10.95494 | 36988 ft | 444 kts | 352° |
| 2026-04-20 18:52 | 52.35538 | 10.94839 | 36234 ft | 435 kts | 353° |
| 2026-04-20 18:53 | 52.38519 | 10.94193 | 35506 ft | 428 kts | 353° |
| 2026-04-20 18:53 | 52.41458 | 10.93554 | 34799 ft | 422 kts | 353° |
| 2026-04-20 18:53 | 52.43378 | 10.93137 | 34342 ft | 417 kts | 353° |
| 2026-04-20 18:53 | 52.46239 | 10.92514 | 33548 ft | 411 kts | 353° |
| 2026-04-20 18:54 | 52.49060 | 10.91899 | 32740 ft | 406 kts | 353° |
| 2026-04-20 18:54 | 52.51837 | 10.91293 | 31953 ft | 400 kts | 354° |
| 2026-04-20 18:54 | 52.54584 | 10.90694 | 31188 ft | 395 kts | 354° |
| 2026-04-20 18:54 | 52.57295 | 10.90100 | 30447 ft | 390 kts | 355° |
| 2026-04-20 18:55 | 52.59970 | 10.89514 | 29609 ft | 385 kts | 355° |
| 2026-04-20 18:55 | 52.62610 | 10.88935 | 28768 ft | 380 kts | 355° |
| 2026-04-20 18:55 | 52.65182 | 10.88369 | 28419 ft | 363 kts | 355° |
| 2026-04-20 18:55 | 52.67680 | 10.87819 | 28295 ft | 362 kts | 355° |
| 2026-04-20 18:56 | 52.70168 | 10.87274 | 28177 ft | 360 kts | 355° |
| 2026-04-20 18:56 | 52.72649 | 10.86730 | 27902 ft | 360 kts | 355° |
| 2026-04-20 18:56 | 52.75125 | 10.86184 | 27603 ft | 356 kts | 355° |
| 2026-04-20 18:56 | 52.77573 | 10.85644 | 27307 ft | 353 kts | 355° |
| 2026-04-20 18:57 | 52.79983 | 10.85112 | 27040 ft | 356 kts | 355° |
| 2026-04-20 18:57 | 52.82452 | 10.84568 | 26507 ft | 361 kts | 355° |
| 2026-04-20 18:57 | 52.84957 | 10.84028 | 25710 ft | 362 kts | 355° |
| 2026-04-20 18:57 | 52.87436 | 10.83519 | 25014 ft | 356 kts | 355° |
| 2026-04-20 18:58 | 52.89876 | 10.83027 | 24360 ft | 350 kts | 356° |
| 2026-04-20 18:58 | 52.92283 | 10.82543 | 23702 ft | 345 kts | 356° |
| 2026-04-20 18:58 | 52.94655 | 10.82065 | 22935 ft | 340 kts | 356° |
| 2026-04-20 18:58 | 52.96989 | 10.81593 | 22202 ft | 336 kts | 356° |
| 2026-04-20 18:59 | 52.99293 | 10.81126 | 21484 ft | 332 kts | 356° |
| 2026-04-20 18:59 | 53.01544 | 10.80603 | 20779 ft | 330 kts | 349° |
| 2026-04-20 18:59 | 53.03638 | 10.79030 | 20067 ft | 333 kts | 326° |
| 2026-04-20 18:59 | 53.05337 | 10.76404 | 19428 ft | 333 kts | 316° |
| 2026-04-20 19:00 | 53.06824 | 10.73456 | 18765 ft | 333 kts | 307° |
| 2026-04-20 19:00 | 53.08007 | 10.70150 | 18061 ft | 332 kts | 301° |
| 2026-04-20 19:00 | 53.09059 | 10.66804 | 17337 ft | 330 kts | 300° |
| 2026-04-20 19:00 | 53.10101 | 10.63420 | 16629 ft | 327 kts | 300° |
| 2026-04-20 19:01 | 53.11149 | 10.60063 | 15924 ft | 325 kts | 300° |
| 2026-04-20 19:01 | 53.12205 | 10.56741 | 15237 ft | 323 kts | 301° |
| 2026-04-20 19:01 | 53.13267 | 10.53448 | 14567 ft | 322 kts | 301° |
| 2026-04-20 19:01 | 53.14332 | 10.50180 | 13898 ft | 320 kts | 301° |
| 2026-04-20 19:02 | 53.15399 | 10.46925 | 13168 ft | 318 kts | 301° |
| 2026-04-20 19:02 | 53.16461 | 10.43697 | 12457 ft | 317 kts | 301° |
| 2026-04-20 19:02 | 53.17517 | 10.40490 | 11758 ft | 315 kts | 302° |
| 2026-04-20 19:02 | 53.18554 | 10.37337 | 11409 ft | 303 kts | 302° |
| 2026-04-20 19:03 | 53.19612 | 10.34384 | 11275 ft | 300 kts | 313° |
| 2026-04-20 19:03 | 53.21078 | 10.31969 | 11229 ft | 294 kts | 322° |
| 2026-04-20 19:03 | 53.22630 | 10.29758 | 11211 ft | 291 kts | 323° |
| 2026-04-20 19:03 | 53.24190 | 10.27576 | 11170 ft | 293 kts | 324° |
| 2026-04-20 19:04 | 53.25772 | 10.25382 | 10699 ft | 298 kts | 324° |
| 2026-04-20 19:04 | 53.27376 | 10.23171 | 10133 ft | 298 kts | 324° |
| 2026-04-20 19:04 | 53.28971 | 10.20976 | 9519 ft | 296 kts | 324° |
| 2026-04-20 19:04 | 53.30559 | 10.18801 | 8911 ft | 295 kts | 323° |
| 2026-04-20 19:05 | 53.31893 | 10.16261 | 8290 ft | 297 kts | 301° |
| 2026-04-20 19:05 | 53.32770 | 10.13146 | 7741 ft | 293 kts | 295° |
| 2026-04-20 19:05 | 53.33547 | 10.10022 | 7235 ft | 288 kts | 294° |
| 2026-04-20 19:05 | 53.34302 | 10.06936 | 6731 ft | 283 kts | 294° |
| 2026-04-20 19:06 | 53.35033 | 10.03947 | 6217 ft | 279 kts | 294° |
| 2026-04-20 19:06 | 53.35758 | 10.00966 | 5781 ft | 272 kts | 294° |
| 2026-04-20 19:06 | 53.36451 | 9.98093 | 5507 ft | 261 kts | 294° |
| 2026-04-20 19:06 | 53.37106 | 9.95328 | 5274 ft | 249 kts | 294° |
| 2026-04-20 19:07 | 53.37741 | 9.92616 | 5248 ft | 252 kts | 294° |
| 2026-04-20 19:07 | 53.38379 | 9.89882 | 5249 ft | 251 kts | 294° |
| 2026-04-20 19:07 | 53.39020 | 9.87178 | 5241 ft | 247 kts | 292° |
| 2026-04-20 19:07 | 53.39301 | 9.84370 | 5235 ft | 246 kts | 268° |
| 2026-04-20 19:08 | 53.39153 | 9.81532 | 5247 ft | 244 kts | 264° |
| 2026-04-20 19:08 | 53.38759 | 9.75743 | 5007 ft | 254 kts | 264° |
| 2026-04-20 19:08 | 53.38557 | 9.72876 | 4970 ft | 249 kts | 264° |
| 2026-04-20 19:09 | 53.38351 | 9.70022 | 4963 ft | 246 kts | 264° |
| 2026-04-20 19:09 | 53.38147 | 9.67180 | 4969 ft | 245 kts | 264° |
| 2026-04-20 19:09 | 53.38028 | 9.64343 | 4958 ft | 245 kts | 278° |
| 2026-04-20 19:09 | 53.38634 | 9.61750 | 4975 ft | 240 kts | 310° |
| 2026-04-20 19:10 | 53.39939 | 9.60008 | 4610 ft | 244 kts | 341° |
| 2026-04-20 19:10 | 53.41575 | 9.59615 | 4076 ft | 237 kts | 13° |
| 2026-04-20 19:10 | 53.43143 | 9.60353 | 3584 ft | 234 kts | 23° |
| 2026-04-20 19:10 | 53.44540 | 9.61664 | 3138 ft | 227 kts | 45° |
| 2026-04-20 19:11 | 53.45580 | 9.63436 | 3006 ft | 200 kts | 52° |
| 2026-04-20 19:11 | 53.46429 | 9.65109 | 2989 ft | 177 kts | 54° |
| 2026-04-20 19:11 | 53.47162 | 9.66608 | 2984 ft | 159 kts | 54° |
| 2026-04-20 19:11 | 53.47829 | 9.67970 | 2982 ft | 147 kts | 54° |
| 2026-04-20 19:12 | 53.48492 | 9.69325 | 3013 ft | 153 kts | 54° |
| 2026-04-20 19:12 | 53.49179 | 9.70723 | 3012 ft | 156 kts | 54° |
| 2026-04-20 19:12 | 53.49868 | 9.72123 | 2999 ft | 155 kts | 54° |
| 2026-04-20 19:12 | 53.50552 | 9.73513 | 3000 ft | 154 kts | 54° |
| 2026-04-20 19:13 | 53.51236 | 9.74901 | 2988 ft | 153 kts | 54° |
| 2026-04-20 19:13 | 53.51912 | 9.76275 | 2993 ft | 152 kts | 54° |
| 2026-04-20 19:13 | 53.52594 | 9.77659 | 2914 ft | 157 kts | 54° |
| 2026-04-20 19:13 | 53.53294 | 9.79080 | 2709 ft | 157 kts | 54° |
| 2026-04-20 19:14 | 53.53981 | 9.80474 | 2501 ft | 152 kts | 54° |
| 2026-04-20 19:14 | 53.54635 | 9.81800 | 2305 ft | 146 kts | 54° |
| 2026-04-20 19:14 | 53.55257 | 9.83061 | 2114 ft | 134 kts | 54° |
| 2026-04-20 19:14 | 53.55833 | 9.84228 | 1970 ft | 127 kts | 54° |
| 2026-04-20 19:15 | 53.56409 | 9.85400 | 1803 ft | 130 kts | 53° |
| 2026-04-20 19:15 | 53.56969 | 9.86534 | 1606 ft | 120 kts | 53° |
| 2026-04-20 19:15 | 53.57485 | 9.87583 | 1457 ft | 116 kts | 52° |
| 2026-04-20 19:15 | 53.58005 | 9.88636 | 1310 ft | 121 kts | 52° |
| 2026-04-20 19:16 | 53.58542 | 9.89720 | 1143 ft | 121 kts | 50° |
| 2026-04-20 19:16 | 53.59082 | 9.90805 | 986 ft | 119 kts | 52° |
| 2026-04-20 19:16 | 53.59612 | 9.91894 | 830 ft | 120 kts | 51° |
| 2026-04-20 19:16 | 53.60159 | 9.92996 | 667 ft | 124 kts | 50° |
| 2026-04-20 19:17 | 53.60705 | 9.94102 | 501 ft | 120 kts | 51° |
| 2026-04-20 19:17 | 53.61255 | 9.95207 | 343 ft | 123 kts | 60° |
| 2026-04-20 19:17 | 53.61763 | 9.96321 | 165 ft | 122 kts | 43° |
| 2026-04-20 19:17 | 53.62305 | 9.97325 | 58 ft | 104 kts | 51° |
| 2026-04-20 19:18 | 53.62716 | 9.98162 | 41 ft | 77 kts | 50° |
| 2026-04-20 19:18 | 53.63017 | 9.98772 | 44 ft | 36 kts | 52° |
| 2026-04-20 19:18 | 53.63091 | 9.99069 | 45 ft | 21 kts | 85° |
| 2026-04-20 19:18 | 53.63091 | 9.99127 | 45 ft | 0 kts | 92° |
| 2026-04-20 19:19 | 53.63088 | 9.99204 | 46 ft | 15 kts | 94° |
| 2026-04-20 19:19 | 53.63086 | 9.99308 | 46 ft | 0 kts | 88° |
| 2026-04-20 19:21 | 53.63088 | 9.99356 | 46 ft | 9 kts | 79° |
| 2026-04-20 19:21 | 53.63137 | 9.99491 | 45 ft | 17 kts | 53° |
| 2026-04-20 19:22 | 53.63201 | 9.99627 | 47 ft | 13 kts | 50° |
| 2026-04-20 19:22 | 53.63262 | 9.99734 | 47 ft | 13 kts | 44° |
| 2026-04-20 19:22 | 53.63321 | 9.99842 | 47 ft | 12 kts | 50° |
| 2026-04-20 19:22 | 53.63375 | 9.99950 | 47 ft | 2 kts | 50° |
| 2026-04-20 19:23 | 53.63378 | 9.99956 | 47 ft | 0 kts | 51° |
| 2026-04-20 19:24 | 53.63378 | 9.99957 | 47 ft | 1 kts | 52° |
| 2026-04-20 19:24 | 53.63416 | 10.00033 | 47 ft | 10 kts | 48° |
| 2026-04-20 19:24 | 53.63426 | 10.00136 | 45 ft | 9 kts | 126° |
| 2026-04-20 19:24 | 53.63362 | 10.00160 | 45 ft | 9 kts | 175° |
| 2026-04-20 19:25 | 53.63298 | 10.00169 | 47 ft | 9 kts | 175° |
| 2026-04-20 19:25 | 53.63235 | 10.00177 | 45 ft | 9 kts | 177° |
| 2026-04-20 19:25 | 53.63174 | 10.00184 | 47 ft | 9 kts | 176° |
| 2026-04-20 19:25 | 53.63109 | 10.00192 | 47 ft | 11 kts | 176° |
| 2026-04-20 19:26 | 53.63035 | 10.00154 | 47 ft | 11 kts | 202° |
| 2026-04-20 19:26 | 53.62986 | 10.00224 | 47 ft | 11 kts | 118° |
| 2026-04-20 19:26 | 53.62970 | 10.00268 | 47 ft | 0 kts | 123° |